createdAt,value
2022-07-26T00:01:32.867Z,99235.94
2022-07-26T00:04:01.343Z,99242.78
2022-07-26T00:06:29.157Z,99236.34
2022-07-26T00:08:56.485Z,99239.81
2022-07-26T00:11:23.906Z,99234.88
2022-07-26T00:13:51.331Z,99239.09
2022-07-26T00:16:18.703Z,99234.53
2022-07-26T00:18:47.599Z,99240.28
2022-07-26T00:21:15.130Z,99247.84
2022-07-26T00:23:42.419Z,99245.22
2022-07-26T00:26:09.649Z,99250.59
2022-07-26T00:28:36.991Z,99244.84
2022-07-26T00:31:04.983Z,99240.31
2022-07-26T00:33:32.475Z,99234.63
2022-07-26T00:35:59.764Z,99241.47
2022-07-26T00:38:27.065Z,99243.28
2022-07-26T00:40:54.316Z,99236.44
2022-07-26T00:43:21.573Z,99237.19
2022-07-26T00:45:50.364Z,99233.41
2022-07-26T00:48:19.760Z,99235.00
2022-07-26T00:50:47.843Z,99230.47
2022-07-26T00:53:15.410Z,99228.91
2022-07-26T00:55:42.727Z,99237.28
2022-07-26T00:58:09.984Z,99241.44
2022-07-26T01:00:37.471Z,99246.34
2022-07-26T01:03:05.363Z,99244.78
2022-07-26T01:05:33.315Z,99241.47
2022-07-26T01:08:00.708Z,99247.97
2022-07-26T01:10:28.112Z,99242.69
2022-07-26T01:12:55.387Z,99240.06
2022-07-26T01:15:23.442Z,99238.53
2022-07-26T01:17:50.667Z,99243.84
2022-07-26T01:20:18.071Z,99243.50
2022-07-26T01:22:45.392Z,99240.84
2022-07-26T01:25:12.723Z,99246.91
2022-07-26T01:27:40.379Z,99244.25
2022-07-26T01:30:10.186Z,99243.91
2022-07-26T01:32:37.734Z,99240.41
2022-07-26T01:35:06.503Z,99235.88
2022-07-26T01:37:33.850Z,99231.31
2022-07-26T01:40:01.096Z,99234.72
2022-07-26T01:42:28.385Z,99235.88
2022-07-26T01:44:55.651Z,99239.66
2022-07-26T01:47:23.175Z,99247.28
2022-07-26T01:49:50.416Z,99241.97
2022-07-26T01:52:18.813Z,99242.69
2022-07-26T01:54:46.153Z,99235.41
2022-07-26T01:57:13.377Z,99236.94
2022-07-26T01:59:40.703Z,99241.91
2022-07-26T02:02:08.065Z,99235.06
2022-07-26T02:04:54.115Z,99235.81
2022-07-26T02:07:24.064Z,99232.00
2022-07-26T02:09:52.899Z,99232.72
2022-07-26T02:12:20.267Z,99236.09
2022-07-26T02:14:47.499Z,99238.41
2022-07-26T02:17:14.874Z,99244.53
2022-07-26T02:19:42.147Z,99242.63
2022-07-26T02:22:09.402Z,99243.03
2022-07-26T02:24:37.351Z,99245.31
2022-07-26T02:27:05.309Z,99234.28
2022-07-26T02:29:32.839Z,99236.63
2022-07-26T02:32:00.538Z,99228.22
2022-07-26T02:34:31.018Z,99228.97
2022-07-26T02:37:01.306Z,99232.03
2022-07-26T02:39:28.939Z,99238.88
2022-07-26T04:04:53.104Z,99281.50
2022-07-26T04:07:21.285Z,99287.28
2022-07-26T04:09:48.731Z,99283.13
2022-07-26T04:12:16.067Z,99293.41
2022-07-26T04:14:43.274Z,99287.69
2022-07-26T04:17:10.630Z,99290.38
2022-07-26T04:19:39.743Z,99283.09
2022-07-26T04:22:07.222Z,99284.66
2022-07-26T04:24:34.508Z,99287.31
2022-07-26T04:27:01.715Z,99288.44
2022-07-26T04:29:28.912Z,99285.41
2022-07-26T04:31:56.213Z,99277.38
2022-07-26T04:34:23.419Z,99288.44
2022-07-26T04:36:50.716Z,99285.34
2022-07-26T04:39:24.408Z,99289.16
2022-07-26T04:41:51.630Z,99295.22
2022-07-26T04:44:18.924Z,99292.03
2022-07-26T04:46:46.129Z,99296.03
2022-07-26T04:49:14.017Z,99294.88
2022-07-26T04:51:41.457Z,99290.44
2022-07-26T04:54:09.060Z,99286.63
2022-07-26T04:56:36.517Z,99286.50
2022-07-26T04:59:03.816Z,99297.19
2022-07-26T05:01:31.227Z,99292.00
2022-07-26T05:03:58.536Z,99295.72
2022-07-26T05:06:25.744Z,99293.09
2022-07-26T05:08:53.035Z,99294.38
2022-07-26T05:11:20.403Z,99296.63
2022-07-26T05:13:48.623Z,99297.00
2022-07-26T05:16:15.921Z,99299.19
2022-07-26T05:18:45.558Z,99292.06
2022-07-26T05:21:16.552Z,99296.63
2022-07-26T05:23:43.759Z,99285.69
2022-07-26T05:26:13.704Z,99292.31
2022-07-26T05:28:41.463Z,99287.19
2022-07-26T05:31:08.884Z,99290.59
2022-07-26T05:33:36.241Z,99288.63
2022-07-26T05:36:03.705Z,99281.44
2022-07-26T05:38:30.918Z,99283.56
2022-07-26T05:40:58.164Z,99285.94
2022-07-26T05:43:27.571Z,99291.34
2022-07-26T05:46:12.625Z,99287.78
2022-07-26T05:48:40.609Z,99289.53
2022-07-26T05:51:08.191Z,99297.28
2022-07-26T05:53:35.551Z,99287.31
2022-07-26T05:56:02.799Z,99288.06
2022-07-26T05:58:30.119Z,99292.44
2022-07-26T06:00:57.464Z,99290.81
2022-07-26T06:03:25.951Z,99284.69
2022-07-26T06:05:56.668Z,99287.75
2022-07-26T06:08:26.319Z,99283.03
2022-07-26T06:10:54.953Z,99282.47
2022-07-26T06:13:22.763Z,99274.91
2022-07-26T06:15:50.823Z,99277.19
2022-07-26T06:18:18.200Z,99267.41
2022-07-26T06:20:47.662Z,99267.28
2022-07-26T06:23:15.446Z,99268.22
2022-07-26T06:25:42.830Z,99270.16
2022-07-26T06:28:11.836Z,99273.88
2022-07-26T06:30:39.666Z,99259.13
2022-07-26T06:33:07.890Z,99267.88
2022-07-26T06:35:36.083Z,99267.47
2022-07-26T06:38:03.881Z,99276.16
2022-07-26T06:40:31.326Z,99267.19
2022-07-26T06:43:03.992Z,99261.09
2022-07-26T06:45:34.886Z,99263.28
2022-07-26T06:48:02.208Z,99252.31
2022-07-26T06:50:29.537Z,99251.06
2022-07-26T06:52:56.904Z,99249.47
2022-07-26T06:55:24.334Z,99246.38
2022-07-26T06:57:51.599Z,99249.00
2022-07-26T07:00:19.281Z,99248.88
2022-07-26T07:02:46.784Z,99242.63
2022-07-26T07:05:14.166Z,99240.94
2022-07-26T07:07:42.190Z,99247.34
2022-07-26T07:10:11.139Z,99242.88
2022-07-26T07:12:40.642Z,99249.84
2022-07-26T07:15:08.453Z,99249.41
2022-07-26T07:17:35.710Z,99245.94
2022-07-26T07:20:05.065Z,99250.94
2022-07-26T07:22:33.225Z,99251.34
2022-07-26T07:25:00.961Z,99245.72
2022-07-26T07:27:30.447Z,99243.50
2022-07-26T07:29:57.761Z,99250.50
2022-07-26T07:32:25.068Z,99236.81
2022-07-26T07:34:53.659Z,99243.34
2022-07-26T07:37:21.346Z,99250.72
2022-07-26T07:39:50.715Z,99248.84
2022-07-26T07:42:19.672Z,99250.38
2022-07-26T07:44:47.348Z,99250.63
2022-07-26T07:47:14.956Z,99247.47
2022-07-26T07:49:42.529Z,99246.13
2022-07-26T07:52:09.839Z,99250.72
2022-07-26T07:54:37.773Z,99241.41
2022-07-26T07:57:05.212Z,99237.25
2022-07-26T07:59:32.552Z,99244.94
2022-07-26T08:02:04.466Z,99239.72
2022-07-26T08:04:31.760Z,99245.22
2022-07-26T08:06:59.785Z,99234.84
2022-07-26T08:09:28.731Z,99238.44
2022-07-26T08:11:56.406Z,99239.06
2022-07-26T08:14:24.326Z,99239.94
2022-07-26T08:16:52.135Z,99233.13
2022-07-26T08:19:19.483Z,99230.31
2022-07-26T08:21:49.815Z,99229.41
2022-07-26T08:24:17.626Z,99228.84
2022-07-26T08:26:46.476Z,99221.50
2022-07-26T08:29:14.022Z,99228.00
2022-07-26T08:31:41.487Z,99224.56
2022-07-26T08:34:08.801Z,99218.69
2022-07-26T08:36:36.023Z,99217.22
2022-07-26T08:39:04.865Z,99214.94
2022-07-26T08:41:32.357Z,99220.03
2022-07-26T08:44:07.768Z,99214.63
2022-07-26T08:46:37.581Z,99210.75
2022-07-26T08:49:07.360Z,99209.72
2022-07-26T08:51:39.668Z,99210.38
2022-07-26T08:54:13.243Z,99202.31
2022-07-26T08:56:52.993Z,99206.66
2022-07-26T08:59:22.604Z,99198.72
2022-07-26T09:02:00.126Z,99201.19
2022-07-26T09:04:44.365Z,99196.38
2022-07-26T09:07:22.276Z,99194.25
2022-07-26T09:10:02.646Z,99195.06
2022-07-26T09:12:31.141Z,99194.63
2022-07-26T09:15:00.127Z,99188.09
2022-07-26T09:17:42.815Z,99197.59
2022-07-26T09:20:24.499Z,99193.06
2022-07-26T09:22:57.280Z,99185.34
2022-07-26T09:25:26.245Z,99178.91
2022-07-26T09:27:56.908Z,99181.44
2022-07-26T09:30:24.337Z,99176.16
2022-07-26T09:33:06.627Z,99179.94
2022-07-26T09:35:49.672Z,99178.84
2022-07-26T09:38:19.744Z,99170.72
2022-07-26T09:40:51.095Z,99171.41
2022-07-26T09:43:23.931Z,99165.66
2022-07-26T09:46:05.932Z,99161.53
2022-07-26T09:51:41.460Z,99153.19
2022-07-26T09:54:13.652Z,99149.25
2022-07-26T09:56:48.447Z,99147.56
2022-07-26T09:59:20.559Z,99147.84
2022-07-26T10:01:53.014Z,99143.78
2022-07-26T10:04:25.739Z,99146.34
2022-07-26T10:06:54.530Z,99138.50
2022-07-26T10:09:23.373Z,99134.03
2022-07-26T10:12:00.241Z,99138.50
2022-07-26T10:14:35.498Z,99129.88
2022-07-26T10:17:32.384Z,99131.72
2022-07-26T10:20:09.136Z,99125.47
2022-07-26T10:22:49.058Z,99118.41
2022-07-26T10:25:19.605Z,99108.44
2022-07-26T10:27:55.818Z,99112.63
2022-07-26T10:30:34.278Z,99097.81
2022-07-26T10:33:10.816Z,99098.09
2022-07-26T10:35:43.684Z,99099.59
2022-07-26T10:38:22.680Z,99087.53
2022-07-26T10:41:03.750Z,99093.78
2022-07-26T10:43:41.544Z,99083.50
2022-07-26T10:46:18.814Z,99082.84
2022-07-26T10:49:09.544Z,99076.63
2022-07-26T10:51:42.407Z,99080.78
2022-07-26T10:54:13.129Z,99078.63
2022-07-26T10:56:42.504Z,99080.31
2022-07-26T10:59:20.309Z,99065.94
2022-07-26T11:02:01.016Z,99061.06
2022-07-26T11:04:31.900Z,99064.16
2022-07-26T11:07:02.537Z,99060.22
2022-07-26T11:09:36.204Z,99055.78
2022-07-26T11:12:18.814Z,99055.22
2022-07-26T11:14:48.648Z,99047.63
2022-07-26T11:17:27.265Z,99048.38
2022-07-26T11:19:56.024Z,99038.38
2022-07-26T11:22:31.351Z,99036.72
2022-07-26T11:24:58.772Z,99036.19
2022-07-26T11:27:26.067Z,99032.97
2022-07-26T11:29:53.417Z,99031.47
2022-07-26T11:32:25.772Z,99020.09
2022-07-26T11:35:04.730Z,99015.81
2022-07-26T11:37:32.253Z,99007.09
2022-07-26T11:40:02.160Z,99011.63
2022-07-26T11:42:29.537Z,99012.75
2022-07-26T11:44:56.892Z,99008.78
2022-07-26T11:47:26.629Z,99004.84
2022-07-26T11:52:42.972Z,98987.47
2022-07-26T11:55:10.384Z,98984.09
2022-07-26T11:57:37.660Z,98990.31
2022-07-26T12:00:08.739Z,98988.53
2022-07-26T12:02:39.401Z,98980.78
2022-07-26T12:05:23.589Z,98972.75
2022-07-26T12:08:04.203Z,98977.34
2022-07-26T12:10:32.385Z,98965.94
2022-07-26T12:13:19.265Z,98977.16
2022-07-26T12:15:52.877Z,98975.31
2022-07-26T12:18:38.097Z,98960.34
2022-07-26T12:21:09.351Z,98959.13
2022-07-26T12:23:49.332Z,98955.25
2022-07-26T12:26:27.647Z,98948.94
2022-07-26T12:28:56.204Z,98943.19
2022-07-26T12:31:32.386Z,98939.50
2022-07-26T12:34:00.157Z,98926.81
2022-07-26T12:36:29.822Z,98932.38
2022-07-26T12:39:01.384Z,98937.28
2022-07-26T12:41:37.949Z,98926.75
2022-07-26T12:44:06.997Z,98928.59
2022-07-26T12:46:35.780Z,98924.06
2022-07-26T12:49:04.713Z,98917.50
2022-07-26T12:51:35.324Z,98918.03
2022-07-26T12:54:03.787Z,98915.50
2022-07-26T12:56:31.028Z,98911.94
2022-07-26T12:59:01.777Z,98918.06
2022-07-26T13:01:30.805Z,98914.34
2022-07-26T13:03:58.417Z,98907.47
2022-07-26T13:06:28.018Z,98904.53
2022-07-26T13:08:56.569Z,98906.50
2022-07-26T13:11:24.174Z,98899.56
2022-07-26T13:13:51.579Z,98899.03
2022-07-26T13:16:18.927Z,98903.53
2022-07-26T13:18:46.783Z,98899.50
2022-07-26T13:21:14.429Z,98894.09
2022-07-26T13:23:41.777Z,98900.09
2022-07-26T13:26:10.226Z,98887.91
2022-07-26T13:28:37.894Z,98888.06
2022-07-26T13:31:06.953Z,98887.56
2022-07-26T13:33:34.490Z,98881.94
2022-07-26T13:36:01.881Z,98879.31
2022-07-26T13:38:33.467Z,98869.56
2022-07-26T13:41:02.387Z,98876.72
2022-07-26T13:43:33.219Z,98872.63
2022-07-26T13:46:02.234Z,98873.19
2022-07-26T13:48:29.977Z,98864.78
2022-07-26T13:50:58.676Z,98866.94
2022-07-26T13:53:26.743Z,98867.97
2022-07-26T13:55:53.967Z,98860.50
2022-07-26T13:58:21.744Z,98864.88
2022-07-26T14:00:49.376Z,98861.69
2022-07-26T14:03:16.988Z,98869.97
2022-07-26T14:05:44.322Z,98860.59
2022-07-26T14:08:11.638Z,98852.28
2022-07-26T14:10:40.164Z,98852.56
2022-07-26T14:13:08.467Z,98847.91
2022-07-26T14:15:36.014Z,98852.75
2022-07-26T14:18:04.034Z,98846.69
2022-07-26T14:20:31.521Z,98848.13
2022-07-26T14:22:59.275Z,98845.78
2022-07-26T14:25:27.871Z,98839.53
2022-07-26T14:27:56.096Z,98842.59
2022-07-26T14:30:23.970Z,98846.91
2022-07-26T14:32:51.476Z,98836.63
2022-07-26T14:35:18.774Z,98840.03
2022-07-26T14:37:46.385Z,98834.00
2022-07-26T14:40:16.285Z,98833.22
2022-07-26T14:42:45.122Z,98816.03
2022-07-26T14:45:13.642Z,98819.66
2022-07-26T14:47:41.252Z,98818.00
2022-07-26T14:50:09.904Z,98815.28
2022-07-26T14:52:42.453Z,98814.16
2022-07-26T14:55:10.403Z,98818.47
2022-07-26T14:57:39.427Z,98812.47
2022-07-26T15:00:10.560Z,98806.47
2022-07-26T15:02:43.110Z,98804.84
2022-07-26T15:05:11.554Z,98806.44
2022-07-26T15:07:39.350Z,98803.09
2022-07-26T15:10:12.023Z,98797.91
2022-07-26T15:12:39.731Z,98794.44
2022-07-26T15:15:08.512Z,98795.41
2022-07-26T15:17:36.387Z,98797.13
2022-07-26T15:20:05.346Z,98796.16
2022-07-26T15:22:32.661Z,98791.34
2022-07-26T15:24:59.924Z,98790.19
2022-07-26T15:27:27.202Z,98788.88
2022-07-26T15:29:58.291Z,98792.78
2022-07-26T15:32:30.130Z,98788.25
2022-07-26T15:34:57.342Z,98786.56
2022-07-26T15:37:24.900Z,98781.13
2022-07-26T15:39:52.293Z,98776.38
2022-07-26T15:42:21.533Z,98769.59
2022-07-26T15:44:50.804Z,98768.81
2022-07-26T15:47:43.597Z,98766.41
2022-07-26T15:50:10.964Z,98769.53
2022-07-26T15:52:40.473Z,98768.59
2022-07-26T15:55:09.959Z,98773.66
2022-07-26T15:57:37.313Z,98772.84
2022-07-26T16:00:11.494Z,98774.19
2022-07-26T16:02:39.907Z,98767.88
2022-07-26T16:05:07.590Z,98774.03
2022-07-26T16:07:34.999Z,98771.22
2022-07-26T16:10:02.280Z,98770.38
2022-07-26T16:12:30.144Z,98760.22
2022-07-26T16:14:57.492Z,98761.81
2022-07-26T16:17:25.334Z,98756.91
2022-07-26T16:19:53.618Z,98763.31
2022-07-26T16:22:20.997Z,98758.16
2022-07-26T16:24:48.250Z,98757.22
2022-07-26T16:27:15.583Z,98756.06
2022-07-26T16:29:43.030Z,98758.25
2022-07-26T16:32:11.739Z,98757.97
2022-07-26T16:34:39.045Z,98747.66
2022-07-26T16:37:06.380Z,98761.53
2022-07-26T16:39:33.679Z,98755.78
2022-07-26T16:42:06.797Z,98756.88
2022-07-26T16:44:36.143Z,98764.56
2022-07-26T16:47:04.641Z,98765.41
2022-07-26T16:49:32.224Z,98762.63
2022-07-26T16:51:59.828Z,98767.06
2022-07-26T16:54:27.398Z,98768.69
2022-07-26T16:56:55.149Z,98757.25
2022-07-26T16:59:23.468Z,98763.97
2022-07-26T17:01:50.744Z,98752.63
2022-07-26T17:04:18.384Z,98758.91
2022-07-26T17:07:01.694Z,98753.44
2022-07-26T17:09:35.907Z,98761.13
2022-07-26T17:12:06.612Z,98752.91
2022-07-26T17:14:34.130Z,98755.91
2022-07-26T17:17:01.322Z,98748.53
2022-07-26T17:19:28.665Z,98756.44
2022-07-26T17:21:56.430Z,98751.00
2022-07-26T17:24:23.938Z,98755.34
2022-07-26T17:26:51.221Z,98754.31
2022-07-26T17:29:18.467Z,98747.19
2022-07-26T17:31:45.736Z,98749.84
2022-07-26T17:34:12.951Z,98751.81
2022-07-26T17:36:40.191Z,98745.88
2022-07-26T17:39:14.981Z,98746.00
2022-07-26T17:41:49.031Z,98749.88
2022-07-26T17:44:16.321Z,98745.81
2022-07-26T17:46:43.745Z,98743.97
2022-07-26T17:49:12.194Z,98744.50
2022-07-26T17:51:41.463Z,98748.31
2022-07-26T17:54:09.396Z,98753.13
2022-07-26T17:56:36.646Z,98755.22
2022-07-26T17:59:03.982Z,98757.75
2022-07-26T18:01:31.363Z,98754.28
2022-07-26T18:03:58.755Z,98755.81
2022-07-26T18:06:26.173Z,98763.56
2022-07-26T18:08:53.507Z,98765.38
2022-07-26T18:11:21.032Z,98758.69
2022-07-26T18:13:48.308Z,98769.41
2022-07-26T18:16:16.669Z,98766.75
2022-07-26T18:18:43.928Z,98771.09
2022-07-26T18:21:11.367Z,98783.41
2022-07-26T18:23:54.559Z,98784.63
2022-07-26T18:26:26.656Z,98780.34
2022-07-26T18:28:55.121Z,98790.03
2022-07-26T18:31:22.466Z,98794.84
2022-07-26T18:33:49.815Z,98801.22
2022-07-26T18:36:17.392Z,98795.84
2022-07-26T18:38:45.214Z,98801.66
2022-07-26T18:41:13.769Z,98809.41
2022-07-26T18:43:41.552Z,98804.47
2022-07-26T18:46:08.908Z,98809.53
2022-07-26T18:48:37.179Z,98812.22
2022-07-26T18:51:10.460Z,98814.38
2022-07-26T18:53:37.915Z,98818.69
2022-07-26T18:56:05.472Z,98825.25
2022-07-26T18:58:32.996Z,98828.16
2022-07-26T19:01:00.234Z,98819.22
2022-07-26T19:03:28.972Z,98828.47
2022-07-26T19:05:56.436Z,98823.13
2022-07-26T19:08:23.729Z,98827.19
2022-07-26T19:10:51.007Z,98824.88
2022-07-26T19:13:20.359Z,98827.16
2022-07-26T19:15:47.615Z,98825.06
2022-07-26T19:18:16.359Z,98833.97
2022-07-26T19:20:44.652Z,98835.75
2022-07-26T19:23:12.219Z,98831.41
2022-07-26T19:25:40.636Z,98827.13
2022-07-26T19:28:09.223Z,98833.66
2022-07-26T19:30:37.042Z,98835.59
2022-07-26T19:33:04.773Z,98844.06
2022-07-26T19:35:32.148Z,98833.81
2022-07-26T19:37:59.897Z,98826.28
2022-07-26T19:40:27.144Z,98836.94
2022-07-26T19:42:54.464Z,98834.66
2022-07-26T19:45:21.931Z,98839.59
2022-07-26T19:47:49.222Z,98842.34
2022-07-26T19:50:16.529Z,98835.91
2022-07-26T19:52:43.863Z,98833.03
2022-07-26T19:55:11.111Z,98837.31
2022-07-26T19:57:38.395Z,98844.13
2022-07-26T20:00:07.710Z,98841.38
2022-07-26T20:02:41.344Z,98840.44
2022-07-26T20:05:13.256Z,98841.09
2022-07-26T20:07:40.944Z,98838.06
2022-07-26T20:10:09.263Z,98845.19
2022-07-26T20:12:38.903Z,98841.75
2022-07-26T20:15:08.334Z,98848.97
2022-07-26T20:17:37.529Z,98855.06
2022-07-26T20:20:07.864Z,98858.47
2022-07-26T20:22:35.161Z,98850.19
2022-07-26T20:25:02.461Z,98859.47
2022-07-26T20:27:30.781Z,98858.84
2022-07-26T20:30:01.130Z,98859.31
2022-07-26T20:32:28.742Z,98868.19
2022-07-26T20:34:56.102Z,98859.22
2022-07-26T20:37:23.506Z,98856.22
2022-07-26T20:39:50.932Z,98853.47
2022-07-26T20:42:21.859Z,98847.91
2022-07-26T20:44:49.598Z,98857.97
2022-07-26T20:47:16.824Z,98862.22
2022-07-26T20:49:44.051Z,98866.25
2022-07-26T20:52:11.445Z,98866.44
2022-07-26T20:54:38.680Z,98866.97
2022-07-26T20:57:06.130Z,98869.28
2022-07-26T20:59:35.043Z,98866.19
2022-07-26T21:02:02.420Z,98866.19
2022-07-26T21:04:30.223Z,98877.22
2022-07-26T21:06:57.486Z,98870.88
2022-07-26T21:09:29.900Z,98870.91
2022-07-26T21:11:57.476Z,98874.78
2022-07-26T21:14:24.785Z,98873.72
2022-07-26T21:16:52.065Z,98881.88
2022-07-26T21:19:19.281Z,98877.47
2022-07-26T21:21:46.840Z,98875.63
2022-07-26T21:24:14.114Z,98876.94
2022-07-26T21:26:41.477Z,98879.50
2022-07-26T21:29:09.125Z,98873.81
2022-07-26T21:31:37.048Z,98872.72
2022-07-26T21:34:04.757Z,98866.78
2022-07-26T21:36:33.029Z,98874.50
2022-07-26T21:39:00.295Z,98874.56
2022-07-26T21:41:27.596Z,98877.09
2022-07-26T21:43:54.932Z,98876.69
2022-07-26T21:46:22.166Z,98869.19
2022-07-26T21:48:49.579Z,98868.78
2022-07-26T21:51:17.321Z,98870.41
2022-07-26T21:53:44.545Z,98865.09
2022-07-26T21:56:11.945Z,98867.38
2022-07-26T21:58:39.236Z,98861.69
2022-07-26T22:01:11.039Z,98865.00
2022-07-26T22:03:40.308Z,98872.75
2022-07-26T22:06:08.291Z,98858.34
2022-07-26T22:08:35.707Z,98866.69
2022-07-26T22:11:04.255Z,98859.72
2022-07-26T22:13:31.617Z,98864.31
2022-07-26T22:15:59.099Z,98864.66
2022-07-26T22:18:26.715Z,98872.28
2022-07-26T22:20:54.369Z,98877.13
2022-07-26T22:23:23.183Z,98877.47
2022-07-26T22:25:50.443Z,98883.06
2022-07-26T22:28:18.272Z,98890.91
2022-07-26T22:30:46.691Z,98892.94
2022-07-26T22:33:13.934Z,98896.13
2022-07-26T22:35:41.284Z,98898.81
2022-07-26T22:38:11.572Z,98896.31
2022-07-26T22:40:40.641Z,98891.25
2022-07-26T22:43:09.027Z,98889.53
2022-07-26T22:45:37.320Z,98892.25
2022-07-26T22:48:05.852Z,98902.69
2022-07-26T22:50:33.746Z,98902.38
2022-07-26T22:53:01.896Z,98904.47
2022-07-26T22:55:30.036Z,98908.69
2022-07-26T22:57:57.432Z,98911.78
2022-07-26T23:00:24.756Z,98913.06
2022-07-26T23:02:55.227Z,98918.34
2022-07-26T23:05:25.568Z,98923.38
2022-07-26T23:08:14.089Z,98919.66
2022-07-26T23:10:52.525Z,98925.03
2022-07-26T23:13:19.840Z,98919.31
2022-07-26T23:15:51.538Z,98921.28
2022-07-26T23:18:20.840Z,98922.13
2022-07-26T23:20:48.368Z,98927.88
2022-07-26T23:23:15.559Z,98922.19
2022-07-26T23:25:42.804Z,98921.00
2022-07-26T23:28:09.984Z,98928.22
2022-07-26T23:30:57.213Z,98926.34
2022-07-26T23:33:53.454Z,98923.69
2022-07-26T23:36:15.870Z,98929.81
2022-07-26T23:38:43.281Z,98934.34
2022-07-26T23:41:10.501Z,98933.59
2022-07-26T23:43:37.773Z,98938.13
2022-07-26T23:46:05.064Z,98929.69
2022-07-26T23:48:32.357Z,98931.59
2022-07-26T23:50:59.662Z,98930.53
2022-07-26T23:53:27.318Z,98935.88
2022-07-26T23:55:54.964Z,98932.41
2022-07-26T23:58:22.518Z,98929.31
